createdAt,value
2022-10-12T00:00:59.025Z,3.90
2022-10-12T00:03:27.121Z,3.63
2022-10-12T00:06:04.659Z,4.13
2022-10-12T00:08:33.226Z,3.20
2022-10-12T00:11:01.509Z,3.60
2022-10-12T00:13:29.805Z,4.07
2022-10-12T00:15:58.353Z,4.10
2022-10-12T00:18:26.415Z,3.90
2022-10-12T00:21:03.672Z,4.22
2022-10-12T00:23:33.024Z,4.00
2022-10-12T00:26:03.606Z,4.20
2022-10-12T00:28:32.006Z,3.80
2022-10-12T00:31:00.429Z,4.35
2022-10-12T00:33:29.450Z,4.30
2022-10-12T00:35:57.721Z,4.20
2022-10-12T00:38:27.350Z,3.78
2022-10-12T00:40:55.421Z,3.78
2022-10-12T00:43:29.870Z,3.88
2022-10-12T00:45:58.357Z,4.10
2022-10-12T00:48:26.931Z,4.32
2022-10-12T00:50:55.972Z,4.35
2022-10-12T00:53:27.827Z,4.40
2022-10-12T00:56:02.238Z,3.90
2022-10-12T00:58:31.482Z,4.18
2022-10-12T01:01:02.362Z,3.80
2022-10-12T01:03:30.715Z,4.90
2022-10-12T01:05:59.565Z,4.65
2022-10-12T01:08:31.242Z,4.25
2022-10-12T01:10:59.320Z,4.55
2022-10-12T01:13:27.744Z,4.13
2022-10-12T01:16:04.124Z,4.30
2022-10-12T01:18:38.827Z,4.70
2022-10-12T01:21:15.382Z,4.30
2022-10-12T01:24:28.934Z,4.60
2022-10-12T01:27:25.871Z,4.20
2022-10-12T01:30:17.542Z,4.40
2022-10-12T01:33:00.532Z,4.40
2022-10-12T01:35:36.688Z,4.25
2022-10-12T01:38:13.156Z,4.68
2022-10-12T01:40:46.991Z,5.40
2022-10-12T01:43:18.426Z,4.68
2022-10-12T01:45:47.939Z,4.75
2022-10-12T01:48:16.848Z,4.80
2022-10-12T01:50:51.331Z,4.70
2022-10-12T01:53:33.298Z,4.40
2022-10-12T01:56:10.052Z,4.78
2022-10-12T01:58:51.784Z,4.45
2022-10-12T02:01:31.138Z,4.35
2022-10-12T02:04:08.600Z,4.90
2022-10-12T02:06:41.853Z,4.57
2022-10-12T02:09:15.849Z,4.57
2022-10-12T02:11:46.609Z,4.57
2022-10-12T02:14:17.868Z,4.55
2022-10-12T02:16:52.203Z,4.60
2022-10-12T02:19:25.752Z,4.40
2022-10-12T02:21:56.465Z,4.50
2022-10-12T02:24:25.496Z,4.85
2022-10-12T02:26:55.215Z,4.80
2022-10-12T02:29:28.348Z,5.15
2022-10-12T02:32:03.442Z,4.65
2022-10-12T02:34:37.986Z,4.70
2022-10-12T02:37:10.273Z,4.53
2022-10-12T02:39:44.537Z,5.07
2022-10-12T02:42:18.645Z,4.75
2022-10-12T02:44:48.843Z,5.20
2022-10-12T02:47:19.715Z,4.60
2022-10-12T02:49:48.479Z,4.53
2022-10-12T02:52:16.641Z,4.72
2022-10-12T02:54:44.745Z,5.00
2022-10-12T02:57:12.890Z,4.30
2022-10-12T02:59:41.054Z,4.80
2022-10-12T03:02:10.124Z,4.50
2022-10-12T03:04:40.099Z,4.82
2022-10-12T03:07:08.197Z,4.70
2022-10-12T03:09:36.340Z,4.70
2022-10-12T03:12:04.735Z,4.65
2022-10-12T03:14:34.017Z,4.30
2022-10-12T03:17:02.409Z,4.30
2022-10-12T03:19:30.521Z,4.20
2022-10-12T03:22:00.267Z,4.53
2022-10-12T03:24:28.351Z,4.30
2022-10-12T03:26:56.454Z,4.55
2022-10-12T03:29:24.608Z,4.50
2022-10-12T03:31:52.701Z,4.27
2022-10-12T03:34:20.801Z,3.80
2022-10-12T03:36:48.921Z,4.55
2022-10-12T03:39:18.397Z,4.65
2022-10-12T03:41:46.509Z,4.10
2022-10-12T03:44:14.638Z,4.18
2022-10-12T03:46:42.713Z,4.45
2022-10-12T03:49:10.812Z,5.20
2022-10-12T03:51:38.921Z,4.13
2022-10-12T03:54:07.346Z,4.43
2022-10-12T03:56:37.336Z,5.05
2022-10-12T03:59:05.885Z,4.22
2022-10-12T04:01:34.080Z,4.50
2022-10-12T04:04:02.153Z,4.25
2022-10-12T04:06:30.226Z,4.20
2022-10-12T04:08:58.386Z,4.05
2022-10-12T04:11:26.504Z,4.30
2022-10-12T04:13:55.975Z,4.13
2022-10-12T04:16:26.176Z,4.00
2022-10-12T04:18:56.900Z,3.90
2022-10-12T04:21:26.568Z,3.95
2022-10-12T04:23:54.624Z,4.30
2022-10-12T04:26:22.696Z,4.10
2022-10-12T04:28:50.887Z,4.20
2022-10-12T04:31:20.359Z,4.10
2022-10-12T04:33:48.555Z,4.50
2022-10-12T04:36:16.648Z,4.40
2022-10-12T04:38:44.748Z,4.10
2022-10-12T04:41:12.847Z,4.10
2022-10-12T04:43:40.910Z,4.10
2022-10-12T04:46:09.202Z,4.03
2022-10-12T04:48:38.833Z,4.20
2022-10-12T04:51:07.256Z,4.55
2022-10-12T04:53:35.320Z,4.20
2022-10-12T04:56:04.873Z,4.50
2022-10-12T04:58:33.395Z,4.20
2022-10-12T05:01:02.059Z,4.43
2022-10-12T05:03:30.336Z,4.40
2022-10-12T05:05:59.833Z,4.50
2022-10-12T05:08:28.047Z,3.93
2022-10-12T05:10:58.124Z,3.80
2022-10-12T05:13:26.374Z,4.28
2022-10-12T05:15:54.581Z,4.15
2022-10-12T05:18:22.808Z,4.75
2022-10-12T05:20:55.926Z,4.00
2022-10-12T05:23:26.568Z,4.85
2022-10-12T05:25:55.867Z,4.70
2022-10-12T05:28:24.457Z,4.10
2022-10-12T05:30:53.042Z,4.50
2022-10-12T05:33:21.756Z,4.22
2022-10-12T05:35:54.704Z,3.88
2022-10-12T05:38:25.934Z,4.43
2022-10-12T05:40:59.227Z,4.60
2022-10-12T05:43:31.989Z,4.15
2022-10-12T05:46:01.725Z,4.00
2022-10-12T05:48:29.842Z,3.83
2022-10-12T05:50:58.014Z,4.20
2022-10-12T05:53:27.533Z,4.00
2022-10-12T05:55:56.245Z,4.05
2022-10-12T05:58:24.703Z,4.00
2022-10-12T06:00:52.851Z,4.38
2022-10-12T06:03:25.793Z,4.10
2022-10-12T06:05:54.502Z,4.10
2022-10-12T06:08:22.673Z,4.18
2022-10-12T06:10:53.951Z,4.00
2022-10-12T06:13:22.141Z,4.20
2022-10-12T06:15:50.667Z,4.30
2022-10-12T06:18:19.447Z,4.00
2022-10-12T06:20:49.029Z,3.90
2022-10-12T06:23:18.608Z,4.25
2022-10-12T06:25:48.077Z,5.10
2022-10-12T06:28:19.426Z,4.20
2022-10-12T06:30:48.357Z,4.22
2022-10-12T06:33:16.473Z,4.70
2022-10-12T06:35:44.725Z,5.10
2022-10-12T06:38:12.927Z,4.43
2022-10-12T06:40:40.998Z,4.80
2022-10-12T06:43:09.405Z,5.30
2022-10-12T06:45:40.967Z,5.25
2022-10-12T06:48:09.724Z,5.70
2022-10-12T06:50:38.643Z,5.03
2022-10-12T06:53:06.840Z,5.30
2022-10-12T06:55:34.959Z,5.10
2022-10-12T06:58:03.216Z,5.22
2022-10-12T07:00:31.290Z,4.80
2022-10-12T07:03:01.136Z,4.60
2022-10-12T07:05:29.768Z,4.70
2022-10-12T07:07:58.362Z,4.43
2022-10-12T07:10:26.749Z,4.40
2022-10-12T07:12:55.228Z,4.50
2022-10-12T07:15:23.586Z,5.00
2022-10-12T07:17:52.261Z,4.97
2022-10-12T07:20:21.928Z,5.22
2022-10-12T07:22:50.208Z,4.43
2022-10-12T07:25:18.602Z,4.50
2022-10-12T07:27:49.037Z,4.90
2022-10-12T07:30:17.525Z,4.97
2022-10-12T07:32:47.012Z,4.10
2022-10-12T07:35:15.387Z,4.60
2022-10-12T07:37:44.917Z,3.92
2022-10-12T07:40:13.146Z,4.70
2022-10-12T07:42:59.206Z,5.10
2022-10-12T07:45:29.951Z,5.35
2022-10-12T07:47:59.985Z,5.10
2022-10-12T07:50:28.161Z,5.30
2022-10-12T07:52:58.527Z,5.47
2022-10-12T07:55:28.206Z,5.05
2022-10-12T07:57:56.345Z,4.90
2022-10-12T08:00:24.646Z,4.70
2022-10-12T08:02:52.702Z,5.10
2022-10-12T08:05:22.285Z,4.78
2022-10-12T08:07:51.296Z,4.70
2022-10-12T08:10:21.911Z,5.67
2022-10-12T08:12:52.259Z,5.57
2022-10-12T08:15:20.601Z,5.10
2022-10-12T08:17:48.953Z,5.75
2022-10-12T08:20:17.374Z,4.30
2022-10-12T08:22:45.501Z,4.53
2022-10-12T08:25:13.739Z,4.90
2022-10-12T08:27:43.179Z,5.57
2022-10-12T08:30:12.432Z,4.67
2022-10-12T08:32:40.633Z,5.00
2022-10-12T08:35:09.067Z,4.80
2022-10-12T08:37:37.564Z,5.40
2022-10-12T08:40:07.068Z,5.35
2022-10-12T08:42:50.438Z,4.90
2022-10-12T08:45:34.691Z,4.28
2022-10-12T08:48:10.624Z,4.00
2022-10-12T08:50:43.771Z,4.63
2022-10-12T08:53:18.300Z,4.65
2022-10-12T08:55:47.789Z,4.90
2022-10-12T08:58:20.707Z,3.97
2022-10-12T09:00:51.623Z,3.75
2022-10-12T09:03:32.979Z,4.10
2022-10-12T09:06:11.335Z,4.45
2022-10-12T09:08:51.312Z,4.10
2022-10-12T09:11:33.676Z,4.55
2022-10-12T09:14:07.690Z,4.80
2022-10-12T09:16:40.467Z,4.55
2022-10-12T09:19:13.847Z,5.45
2022-10-12T09:21:44.109Z,4.93
2022-10-12T09:24:17.664Z,4.72
2022-10-12T09:26:49.772Z,5.25
2022-10-12T09:29:26.653Z,4.47
2022-10-12T09:32:20.303Z,5.25
2022-10-12T09:34:50.156Z,4.70
2022-10-12T09:37:21.925Z,5.53
2022-10-12T09:39:50.773Z,4.80
2022-10-12T09:42:19.048Z,5.10
2022-10-12T09:44:51.116Z,4.90
2022-10-12T09:47:28.439Z,4.50
2022-10-12T09:49:58.893Z,4.70
2022-10-12T09:52:31.507Z,4.30
2022-10-12T09:55:05.152Z,4.30
2022-10-12T09:57:36.922Z,3.60
2022-10-12T10:03:05.110Z,4.30
2022-10-12T10:05:35.386Z,3.80
2022-10-12T10:08:19.850Z,6.43
2022-10-12T10:10:50.813Z,4.60
2022-10-12T10:13:19.317Z,3.43
2022-10-12T10:15:51.006Z,3.42
2022-10-12T10:18:29.182Z,2.80
2022-10-12T10:21:00.060Z,2.45
2022-10-12T10:23:30.300Z,2.30
2022-10-12T10:26:00.418Z,3.20
2022-10-12T10:28:31.133Z,2.47
2022-10-12T10:31:02.821Z,2.97
2022-10-12T10:33:35.621Z,2.53
2022-10-12T10:36:07.920Z,3.03
2022-10-12T10:38:55.213Z,2.00
2022-10-12T10:41:26.725Z,1.70
2022-10-12T10:43:55.416Z,1.67
2022-10-12T10:46:26.021Z,2.20
2022-10-12T10:49:01.846Z,2.10
2022-10-12T10:51:49.343Z,1.80
2022-10-12T10:54:28.053Z,1.90
2022-10-12T10:57:01.865Z,1.95
2022-10-12T10:59:48.176Z,2.00
2022-10-12T11:02:24.665Z,1.98
2022-10-12T11:05:02.996Z,1.60
2022-10-12T11:07:36.882Z,1.88
2022-10-12T11:10:14.993Z,2.05
2022-10-12T11:12:49.679Z,1.65
2022-10-12T11:15:23.216Z,2.00
2022-10-12T11:17:56.182Z,1.75
2022-10-12T11:20:38.573Z,1.70
2022-10-12T11:23:17.242Z,2.50
2022-10-12T11:25:56.955Z,2.13
2022-10-12T11:28:30.099Z,1.70
2022-10-12T11:30:59.266Z,1.80
2022-10-12T11:33:30.577Z,2.50
2022-10-12T11:36:00.795Z,1.50
2022-10-12T11:38:33.024Z,1.98
2022-10-12T11:41:31.447Z,1.73
2022-10-12T11:44:02.798Z,1.80
2022-10-12T11:46:35.838Z,1.60
2022-10-12T11:49:10.816Z,1.55
2022-10-12T11:51:40.367Z,1.73
2022-10-12T11:54:18.145Z,1.40
2022-10-12T11:56:50.269Z,1.80
2022-10-12T11:59:25.743Z,1.80
2022-10-12T12:02:11.763Z,2.25
2022-10-12T12:04:45.266Z,2.90
2022-10-12T12:07:50.284Z,1.55
2022-10-12T12:11:04.442Z,1.60
2022-10-12T12:13:33.264Z,2.10
2022-10-12T12:16:44.811Z,1.90
2022-10-12T12:19:41.963Z,1.60
2022-10-12T12:22:23.521Z,1.60
2022-10-12T12:25:00.198Z,1.73
2022-10-12T12:27:38.368Z,1.65
2022-10-12T12:30:24.454Z,1.73
2022-10-12T12:32:55.343Z,1.80
2022-10-12T12:35:27.939Z,1.40
2022-10-12T12:38:34.729Z,1.70
2022-10-12T12:41:11.912Z,1.75
2022-10-12T12:43:57.226Z,1.42
2022-10-12T12:46:28.258Z,1.98
2022-10-12T12:49:01.338Z,1.60
2022-10-12T12:51:41.925Z,1.60
2022-10-12T12:54:22.024Z,1.37
2022-10-12T12:57:10.319Z,1.80
2022-10-12T13:00:11.286Z,2.40
2022-10-12T13:03:10.384Z,1.30
2022-10-12T13:06:11.523Z,1.50
2022-10-12T13:08:52.208Z,1.60
2022-10-12T13:11:51.216Z,1.90
2022-10-12T13:14:39.735Z,1.40
2022-10-12T13:17:36.604Z,1.40
2022-10-12T13:20:12.656Z,1.50
2022-10-12T13:22:41.876Z,1.65
2022-10-12T13:25:16.375Z,1.60
2022-10-12T13:27:48.694Z,1.60
2022-10-12T13:30:24.781Z,1.60
2022-10-12T13:32:57.464Z,1.63
2022-10-12T13:35:32.914Z,2.20
2022-10-12T13:38:02.713Z,2.08
2022-10-12T13:40:33.625Z,5.07
2022-10-12T13:43:26.936Z,6.20
2022-10-12T13:45:56.559Z,2.10
2022-10-12T13:48:53.722Z,2.10
2022-10-12T13:51:24.771Z,2.38
2022-10-12T13:53:53.511Z,2.50
2022-10-12T13:56:24.492Z,2.15
2022-10-12T13:58:58.127Z,2.25
2022-10-12T14:01:28.104Z,2.30
2022-10-12T14:04:04.720Z,2.35
2022-10-12T14:06:35.508Z,1.80
2022-10-12T14:09:10.260Z,3.00
2022-10-12T14:11:39.784Z,2.92
2022-10-12T14:14:13.839Z,2.08
2022-10-12T14:16:43.609Z,2.28
2022-10-12T14:19:32.973Z,2.35
2022-10-12T14:22:02.290Z,2.00
2022-10-12T14:24:31.874Z,2.30
2022-10-12T14:27:02.063Z,2.45
2022-10-12T14:29:35.763Z,2.20
2022-10-12T14:32:07.405Z,1.87
2022-10-12T14:34:39.660Z,2.10
2022-10-12T14:37:24.114Z,2.47
2022-10-12T14:39:59.503Z,2.60
2022-10-12T14:42:34.045Z,2.27
2022-10-12T14:45:04.308Z,2.05
2022-10-12T14:47:36.107Z,2.40
2022-10-12T14:50:08.516Z,2.47
2022-10-12T14:52:40.689Z,2.20
2022-10-12T14:55:16.237Z,2.40
2022-10-12T14:57:44.761Z,3.00
2022-10-12T15:00:15.741Z,2.63
2022-10-12T15:02:45.490Z,2.30
2022-10-12T15:05:15.562Z,2.30
2022-10-12T15:07:44.627Z,2.20
2022-10-12T15:10:12.820Z,2.40
2022-10-12T15:12:41.419Z,2.28
2022-10-12T15:15:28.931Z,2.20
2022-10-12T15:17:59.388Z,2.05
2022-10-12T15:20:29.648Z,2.20
2022-10-12T15:22:57.942Z,1.90
2022-10-12T15:25:30.188Z,2.23
2022-10-12T15:27:59.136Z,1.70
2022-10-12T15:30:27.323Z,1.80
2022-10-12T15:32:55.519Z,2.10
2022-10-12T15:35:27.355Z,2.30
2022-10-12T15:37:56.959Z,2.20
2022-10-12T15:40:25.922Z,2.40
2022-10-12T15:42:54.117Z,1.83
2022-10-12T15:45:25.283Z,2.05
2022-10-12T15:47:54.459Z,4.80
2022-10-12T15:50:26.184Z,2.95
2022-10-12T15:52:54.607Z,3.40
2022-10-12T15:55:25.827Z,2.30
2022-10-12T15:57:54.723Z,2.20
2022-10-12T16:00:25.993Z,2.30
2022-10-12T16:02:55.043Z,2.15
2022-10-12T16:05:26.623Z,2.20
2022-10-12T16:07:55.591Z,2.00
2022-10-12T16:10:25.684Z,2.60
2022-10-12T16:12:55.280Z,2.10
2022-10-12T16:15:26.082Z,1.90
2022-10-12T16:17:54.340Z,2.45
2022-10-12T16:20:23.163Z,2.80
2022-10-12T16:22:53.823Z,2.92
2022-10-12T16:25:24.905Z,2.88
2022-10-12T16:27:54.750Z,2.50
2022-10-12T16:30:23.907Z,2.50
2022-10-12T16:32:52.300Z,2.40
2022-10-12T16:35:20.741Z,2.50
2022-10-12T16:37:49.423Z,2.10
2022-10-12T16:40:19.107Z,2.42
2022-10-12T16:42:53.089Z,2.58
2022-10-12T16:45:21.467Z,3.10
2022-10-12T16:47:50.506Z,2.95
2022-10-12T16:50:19.849Z,3.00
2022-10-12T16:52:48.090Z,3.17
2022-10-12T16:55:18.144Z,3.40
2022-10-12T16:57:47.415Z,2.60
2022-10-12T17:00:19.136Z,4.15
2022-10-12T17:02:47.875Z,3.85
2022-10-12T17:05:16.095Z,5.00
2022-10-12T17:07:44.470Z,4.50
2022-10-12T17:10:12.694Z,4.80
2022-10-12T17:12:42.317Z,4.10
2022-10-12T17:15:11.872Z,4.20
2022-10-12T17:17:40.089Z,4.30
2022-10-12T17:20:09.138Z,4.80
2022-10-12T17:22:37.309Z,5.53
2022-10-12T17:25:06.057Z,4.65
2022-10-12T17:27:34.244Z,5.43
2022-10-12T17:30:03.933Z,5.47
2022-10-12T17:32:37.544Z,5.10
2022-10-12T17:35:06.222Z,5.03
2022-10-12T17:37:34.513Z,4.50
2022-10-12T17:40:05.784Z,4.55
2022-10-12T17:42:33.970Z,4.30
2022-10-12T17:45:03.600Z,5.05
2022-10-12T17:47:31.823Z,4.32
2022-10-12T17:50:00.005Z,4.90
2022-10-12T17:52:28.325Z,5.22
2022-10-12T17:54:56.585Z,5.60
2022-10-12T17:57:24.994Z,5.85
2022-10-12T17:59:53.123Z,5.88
2022-10-12T18:02:22.896Z,5.90
2022-10-12T18:04:51.027Z,6.63
2022-10-12T18:07:19.883Z,5.80
2022-10-12T18:09:48.430Z,6.38
2022-10-12T18:12:17.100Z,6.50
2022-10-12T18:14:45.555Z,7.32
2022-10-12T18:17:13.845Z,7.47
2022-10-12T18:19:43.581Z,8.63
2022-10-12T18:22:11.917Z,7.80
2022-10-12T18:24:40.753Z,7.47
2022-10-12T18:27:09.004Z,7.40
2022-10-12T18:29:37.190Z,7.10
2022-10-12T18:32:06.673Z,8.32
2022-10-12T18:34:36.717Z,7.50
2022-10-12T18:37:06.535Z,16.90
2022-10-12T18:39:35.130Z,13.18
2022-10-12T18:42:03.340Z,12.75
2022-10-12T18:44:31.550Z,9.43
2022-10-12T18:46:59.782Z,8.32
2022-10-12T18:49:28.122Z,7.45
2022-10-12T18:51:56.298Z,6.82
2022-10-12T18:54:25.896Z,7.97
2022-10-12T18:56:54.217Z,9.30
2022-10-12T18:59:22.495Z,10.05
2022-10-12T19:01:50.602Z,12.32
2022-10-12T19:04:19.024Z,11.65
2022-10-12T19:06:47.162Z,11.80
2022-10-12T19:09:15.614Z,11.60
2022-10-12T19:11:45.175Z,11.85
2022-10-12T19:14:15.220Z,11.73
2022-10-12T19:16:45.952Z,12.20
2022-10-12T19:19:20.806Z,11.73
2022-10-12T19:21:49.718Z,12.45
2022-10-12T19:24:18.115Z,12.25
2022-10-12T19:26:48.525Z,11.17
2022-10-12T19:29:16.934Z,12.20
2022-10-12T19:31:47.769Z,10.60
2022-10-12T19:34:18.061Z,9.77
2022-10-12T19:36:46.651Z,9.75
2022-10-12T19:39:16.480Z,9.20
2022-10-12T19:41:45.364Z,8.98
2022-10-12T19:44:15.428Z,8.60
2022-10-12T19:46:47.201Z,9.48
2022-10-12T19:49:16.920Z,8.60
2022-10-12T19:51:45.339Z,8.65
2022-10-12T19:54:15.877Z,8.15
2022-10-12T19:56:44.092Z,8.48
2022-10-12T19:59:14.200Z,8.67
2022-10-12T20:01:49.528Z,7.82
2022-10-12T20:04:17.828Z,9.25
2022-10-12T20:06:46.136Z,9.23
2022-10-12T20:09:14.307Z,10.35
2022-10-12T20:11:43.296Z,11.00
2022-10-12T20:14:12.201Z,11.30
2022-10-12T20:16:41.795Z,10.40
2022-10-12T20:19:10.160Z,10.60
2022-10-12T20:21:38.612Z,9.77
2022-10-12T20:24:09.844Z,10.35
2022-10-12T20:26:38.579Z,9.60
2022-10-12T20:29:06.783Z,10.40
2022-10-12T20:31:35.076Z,10.85
2022-10-12T20:34:04.888Z,10.65
2022-10-12T20:36:33.223Z,9.00
2022-10-12T20:39:01.592Z,9.20
2022-10-12T20:41:29.816Z,9.48
2022-10-12T20:43:59.403Z,9.10
2022-10-12T20:46:28.684Z,10.75
2022-10-12T20:48:59.110Z,10.57
2022-10-12T20:51:31.252Z,11.00
2022-10-12T20:54:00.984Z,11.23
2022-10-12T20:56:29.700Z,9.27
2022-10-12T20:58:58.546Z,9.98
2022-10-12T21:01:28.197Z,9.27
2022-10-12T21:03:56.651Z,9.95
2022-10-12T21:06:25.177Z,10.50
2022-10-12T21:08:56.522Z,9.60
2022-10-12T21:11:25.367Z,8.70
2022-10-12T21:13:54.047Z,8.68
2022-10-12T21:16:22.267Z,8.95
2022-10-12T21:18:53.902Z,8.98
2022-10-12T21:21:22.706Z,9.93
2022-10-12T21:23:55.738Z,10.02
2022-10-12T21:26:25.672Z,9.15
2022-10-12T21:28:54.103Z,10.05
2022-10-12T21:31:25.217Z,8.68
2022-10-12T21:33:56.512Z,8.50
2022-10-12T21:36:27.535Z,7.75
2022-10-12T21:38:57.287Z,7.13
2022-10-12T21:41:27.127Z,7.40
2022-10-12T21:43:56.184Z,6.80
2022-10-12T21:46:27.046Z,7.40
2022-10-12T21:48:55.456Z,7.60
2022-10-12T21:51:25.284Z,6.60
2022-10-12T21:53:53.797Z,6.97
2022-10-12T21:56:25.081Z,7.15
2022-10-12T21:58:54.393Z,6.75
2022-10-12T22:01:24.402Z,6.25
2022-10-12T22:03:54.267Z,6.10
2022-10-12T22:06:23.856Z,6.45
2022-10-12T22:08:54.229Z,6.28
2022-10-12T22:11:24.653Z,6.45
2022-10-12T22:13:53.587Z,6.05
2022-10-12T22:16:21.813Z,6.68
2022-10-12T22:18:49.956Z,6.43
2022-10-12T22:21:20.528Z,6.28
2022-10-12T22:23:48.791Z,6.10
2022-10-12T22:26:18.680Z,5.60
2022-10-12T22:28:55.689Z,5.65
2022-10-12T22:31:25.559Z,6.25
2022-10-12T22:33:54.538Z,5.90
2022-10-12T22:36:22.712Z,5.80
2022-10-12T22:38:50.994Z,6.30
2022-10-12T22:41:21.158Z,6.20
2022-10-12T22:43:50.481Z,6.90
2022-10-12T22:46:21.531Z,6.10
2022-10-12T22:48:50.222Z,5.70
2022-10-12T22:51:22.348Z,6.20
2022-10-12T22:53:50.659Z,6.10
2022-10-12T22:56:20.170Z,6.53
2022-10-12T22:58:49.004Z,6.37
2022-10-12T23:01:19.651Z,6.40
2022-10-12T23:03:47.789Z,7.03
2022-10-12T23:06:18.851Z,6.53
2022-10-12T23:08:47.916Z,7.20
2022-10-12T23:11:18.743Z,7.25
2022-10-12T23:13:48.151Z,7.25
2022-10-12T23:16:17.888Z,7.40
2022-10-12T23:18:48.409Z,6.10
2022-10-12T23:21:18.523Z,7.60
2022-10-12T23:23:47.347Z,7.53
2022-10-12T23:26:18.082Z,6.47
2022-10-12T23:28:46.943Z,7.07
2022-10-12T23:31:19.774Z,7.70
2022-10-12T23:33:50.178Z,7.20
2022-10-12T23:36:18.980Z,7.22
2022-10-12T23:38:47.139Z,6.93
2022-10-12T23:41:15.444Z,7.13
2022-10-12T23:43:43.568Z,7.28
2022-10-12T23:46:13.398Z,7.05
2022-10-12T23:48:41.895Z,8.18
2022-10-12T23:51:12.134Z,7.60
2022-10-12T23:53:41.942Z,6.70
2022-10-12T23:56:10.347Z,7.40
2022-10-12T23:58:38.740Z,7.45
